createdAt,value
2018-05-17T00:00:04.659Z,0.0
2018-05-17T00:13:34.254Z,0.0
2018-05-17T00:26:49.569Z,0.0
2018-05-17T00:37:03.699Z,0.0
2018-05-17T00:49:56.798Z,0.0
2018-05-17T01:02:48.993Z,0.0
2018-05-17T01:15:24.193Z,0.0
2018-05-17T01:27:29.461Z,0.0
2018-05-17T01:39:11.826Z,0.0
2018-05-17T02:02:32.518Z,0.0
2018-05-17T02:13:17.410Z,0.0
2018-05-17T02:23:28.999Z,0.0
2018-05-17T02:33:42.368Z,0.0
2018-05-17T02:43:58.654Z,0.0
2018-05-17T02:54:13.200Z,0.0
2018-05-17T03:04:25.688Z,4.0
2018-05-17T03:14:37.509Z,12.0
2018-05-17T03:24:51.481Z,32.0
2018-05-17T03:35:05.560Z,84.0
2018-05-17T03:45:19.959Z,176.0
2018-05-17T03:56:05.611Z,308.0
2018-05-17T04:06:52.257Z,496.0
2018-05-17T04:17:38.060Z,660.0
2018-05-17T04:28:25.899Z,940.0
2018-05-17T04:39:11.649Z,1136.0
2018-05-17T04:49:26.046Z,1440.0
2018-05-17T04:59:40.241Z,1792.0
2018-05-17T05:09:54.119Z,2072.0
2018-05-17T05:20:08.747Z,2364.0
2018-05-17T05:30:22.749Z,2460.0
2018-05-17T05:41:09.052Z,3204.0
2018-05-17T05:51:54.818Z,3712.0
2018-05-17T06:02:09.929Z,4252.0
2018-05-17T06:12:55.153Z,4716.0
2018-05-17T06:23:42.564Z,4976.0
2018-05-17T06:33:56.127Z,6972.0
2018-05-17T06:44:25.148Z,7824.0
2018-05-17T06:54:40.303Z,9244.0
2018-05-17T07:05:10.354Z,7536.0
2018-05-17T07:15:35.319Z,8124.0
2018-05-17T07:26:20.690Z,9888.0
2018-05-17T07:37:06.431Z,10140.0
2018-05-17T07:47:52.397Z,9304.0
2018-05-17T07:58:37.739Z,24224.0
2018-05-17T08:12:07.162Z,27328.0
2018-05-17T08:22:32.502Z,18656.0
2018-05-17T08:34:28.781Z,10568.0
2018-05-17T08:58:35.767Z,16992.0
2018-05-17T09:08:57.147Z,37728.0
2018-05-17T10:04:33.827Z,49024.0
2018-05-17T10:14:51.828Z,18400.0
2018-05-17T10:25:07.423Z,49216.0
2018-05-17T10:35:20.506Z,14064.0
2018-05-17T11:03:32.809Z,39168.0
2018-05-17T11:14:27.915Z,48736.0
2018-05-17T11:25:51.522Z,42624.0
2018-05-17T11:36:07.536Z,48576.0
2018-05-17T11:57:20.993Z,56160.0
2018-05-17T12:07:36.119Z,52736.0
2018-05-17T12:17:51.332Z,51872.0
2018-05-17T12:29:20.001Z,50560.0
2018-05-17T12:42:26.024Z,49376.0
2018-05-17T12:55:17.981Z,43904.0
2018-05-17T13:06:08.379Z,42816.0
2018-05-17T13:16:35.774Z,37440.0
2018-05-17T13:26:50.387Z,25248.0
2018-05-17T13:47:58.639Z,18720.0
2018-05-17T13:58:52.212Z,35104.0
2018-05-17T14:10:06.323Z,23424.0
2018-05-17T14:31:20.587Z,20448.0
2018-05-17T14:43:19.721Z,19328.0
2018-05-17T14:53:46.224Z,12016.0
2018-05-17T15:04:39.876Z,9548.0
2018-05-17T15:15:27.524Z,10272.0
2018-05-17T15:25:43.248Z,10160.0
2018-05-17T15:35:58.802Z,10968.0
2018-05-17T15:46:24.523Z,6652.0
2018-05-17T15:57:12.120Z,6608.0
2018-05-17T16:18:26.725Z,8328.0
2018-05-17T16:28:41.138Z,6580.0
2018-05-17T16:52:42.872Z,5036.0
2018-05-17T17:02:55.238Z,4116.0
2018-05-17T17:31:36.988Z,2716.0
2018-05-17T17:42:29.994Z,2348.0
2018-05-17T18:15:17.925Z,908.0
2018-05-17T18:25:33.541Z,700.0
2018-05-17T18:35:48.621Z,460.0
2018-05-17T18:47:04.882Z,276.0
2018-05-17T18:58:31.373Z,188.0
2018-05-17T19:19:52.564Z,44.0
2018-05-17T19:30:47.260Z,16.0
2018-05-17T19:41:02.826Z,8.0
2018-05-17T19:52:19.469Z,0.0
2018-05-17T20:04:08.321Z,0.0
2018-05-17T20:28:53.498Z,0.0
2018-05-17T20:41:47.763Z,0.0
2018-05-17T21:19:36.853Z,0.0
2018-05-17T21:32:17.707Z,0.0
2018-05-17T21:44:17.369Z,0.0
2018-05-17T21:55:19.570Z,0.0
2018-05-17T22:06:10.583Z,0.0
2018-05-17T22:17:08.457Z,0.0
2018-05-17T22:39:56.761Z,0.0
2018-05-17T22:51:31.632Z,0.0
2018-05-17T23:01:43.501Z,0.0
2018-05-17T23:12:38.444Z,0.0
2018-05-17T23:36:27.130Z,0.0
2018-05-17T23:47:59.147Z,0.0
2018-05-17T23:58:11.560Z,0.0
